Time;durP1;ratioP1;P1;durP2;ratioP2;P2;SDS_P1;SDS_P2;PMS_P1;PMS_P2;Temp;Humidity;BMP_temperature;BMP_pressure;BME280_temperature;BME280_humidity;BME280_pressure;Samples;Min_cycle;Max_cycle;Signal;HPM_P1;HPM_P2
2022/01/21 00:02:13;;;;;;;2.40;0.73;;;-4.20;99.90;;;;;;5084272;28;20676;-61
2022/01/21 00:04:53;;;;;;;1.55;0.80;;;-4.40;99.90;;;;;;5104381;27;20574;-61
2022/01/21 00:07:33;;;;;;;1.23;0.70;;;-4.40;99.90;;;;;;5083775;28;20660;-62
2022/01/21 00:10:13;;;;;;;1.40;0.90;;;-4.50;99.90;;;;;;5084374;27;20577;-61
2022/01/21 00:12:53;;;;;;;2.38;0.60;;;-4.70;99.90;;;;;;5080166;28;20688;-61
2022/01/21 00:15:32;;;;;;;0.93;0.40;;;-4.80;99.90;;;;;;5130481;27;21028;-61
2022/01/21 00:18:13;;;;;;;1.17;0.50;;;-5.00;99.90;;;;;;5100770;27;20580;-62
2022/01/21 00:32:43;;;;;;;2.65;0.75;;;-5.60;99.90;;;;;;5080971;27;20557;-62
2022/01/21 00:35:23;;;;;;;1.33;0.50;;;-5.60;99.90;;;;;;5139502;27;20660;-61
2022/01/21 00:38:03;;;;;;;1.63;1.10;;;-5.60;99.90;;;;;;5103205;27;20685;-61
2022/01/21 00:40:43;;;;;;;1.85;0.68;;;-5.70;99.90;;;;;;5131310;27;20693;-61
2022/01/21 00:43:30;;;;;;;1.83;0.70;;;-5.70;99.90;;;;;;5104459;27;20537;-61
2022/01/21 00:46:11;;;;;;;1.08;0.70;;;-5.70;99.90;;;;;;5103915;27;20538;-61
2022/01/21 00:48:50;;;;;;;1.17;0.60;;;-5.70;99.90;;;;;;5103166;27;21102;-61
2022/01/21 00:51:30;;;;;;;1.63;0.60;;;-5.80;99.90;;;;;;5084853;27;20976;-60
2022/01/21 00:54:10;;;;;;;1.25;0.52;;;-6.00;99.90;;;;;;5116876;27;20566;-62
2022/01/21 00:56:50;;;;;;;1.00;0.80;;;-6.40;99.90;;;;;;5103164;27;20661;-60
2022/01/21 00:59:29;;;;;;;1.48;0.52;;;-6.70;99.90;;;;;;5082830;28;20680;-61
2022/01/21 01:02:09;;;;;;;1.98;0.60;;;-6.80;99.90;;;;;;5125425;27;21253;-59
2022/01/21 01:04:49;;;;;;;2.45;0.82;;;-6.70;99.90;;;;;;5084015;27;20604;-61
2022/01/21 01:07:29;;;;;;;1.38;0.50;;;-6.80;99.90;;;;;;5084078;27;20553;-61
2022/01/21 01:10:15;;;;;;;1.58;0.50;;;-7.00;99.90;;;;;;5084562;28;20998;-62
2022/01/21 01:19:50;;;;;;;0.98;0.65;;;-7.00;99.90;;;;;;5104904;27;20555;-61
2022/01/21 01:21:55;;;;;;;0.73;0.68;;;-7.20;99.90;;;;;;5083859;27;20565;-62
2022/01/21 01:27:41;;;;;;;1.65;0.90;;;-7.50;99.90;;;;;;5143302;27;20550;-61
2022/01/21 01:30:23;;;;;;;1.17;0.55;;;-7.40;99.90;;;;;;5115220;27;20544;-62
2022/01/21 01:33:03;;;;;;;2.25;0.60;;;-7.20;99.90;;;;;;5105259;27;20669;-62
2022/01/21 01:35:42;;;;;;;1.23;0.80;;;-7.00;99.90;;;;;;5084593;27;20569;-59
2022/01/21 01:41:21;;;;;;;2.17;0.63;;;-6.50;99.90;;;;;;5081335;28;20575;-62
2022/01/21 01:49:56;;;;;;;1.70;0.68;;;-5.30;99.90;;;;;;5083393;28;20680;-61
2022/01/21 01:52:36;;;;;;;3.88;0.90;;;-5.00;99.90;;;;;;5098173;27;20565;-61
2022/01/21 01:55:16;;;;;;;2.50;0.90;;;-4.70;99.90;;;;;;5143942;27;21015;-61
2022/01/21 01:57:56;;;;;;;1.77;1.00;;;-4.50;99.90;;;;;;5102656;27;20677;-61
2022/01/21 02:00:38;;;;;;;1.13;0.90;;;-4.30;99.90;;;;;;5077735;28;20702;-61
2022/01/21 02:03:18;;;;;;;2.00;0.77;;;-4.20;99.90;;;;;;5104704;27;21020;-61
2022/01/21 02:05:57;;;;;;;1.85;0.68;;;-4.20;99.90;;;;;;5084964;28;20660;-59
2022/01/21 02:08:37;;;;;;;1.60;0.68;;;-4.40;99.90;;;;;;5083736;28;20679;-61
2022/01/21 02:11:17;;;;;;;1.23;0.90;;;-4.80;99.90;;;;;;5084351;27;20572;-61
2022/01/21 02:13:59;;;;;;;1.58;0.70;;;-5.30;99.90;;;;;;5105267;27;20534;-61
2022/01/21 02:17:07;;;;;;;3.00;0.73;;;-5.80;99.90;;;;;;5098806;27;20670;-61
2022/01/21 02:22:44;;;;;;;0.82;0.70;;;-6.70;99.90;;;;;;5085077;27;20535;-61
2022/01/21 02:25:24;;;;;;;1.95;0.70;;;-7.10;99.90;;;;;;5104913;27;20530;-61
2022/01/21 02:28:04;;;;;;;0.85;0.80;;;-7.30;99.90;;;;;;5124337;27;21188;-61
2022/01/21 02:30:55;;;;;;;2.33;0.60;;;-7.50;99.90;;;;;;5104895;27;21078;-61
2022/01/21 02:33:35;;;;;;;1.38;0.50;;;-7.60;99.90;;;;;;5125368;27;20536;-61
2022/01/21 02:36:15;;;;;;;1.75;0.80;;;-7.60;99.90;;;;;;5084749;28;20604;-61
2022/01/21 02:38:55;;;;;;;2.72;1.70;;;-7.60;99.90;;;;;;5083260;27;20825;-61
2022/01/21 02:41:34;;;;;;;1.27;0.82;;;-7.60;99.90;;;;;;5084684;28;20675;-61
2022/01/21 02:44:17;;;;;;;1.15;0.75;;;-7.70;99.90;;;;;;5105345;27;20945;-62
2022/01/21 02:46:58;;;;;;;1.48;0.77;;;-7.90;99.90;;;;;;5146629;27;20655;-61
2022/01/21 02:49:37;;;;;;;3.70;0.93;;;-8.10;99.90;;;;;;5105223;27;20865;-61
2022/01/21 02:52:18;;;;;;;1.75;1.13;;;-8.40;99.90;;;;;;5104971;27;20678;-61
2022/01/21 02:54:58;;;;;;;2.55;1.17;;;-8.80;99.90;;;;;;5146019;27;20665;-61
2022/01/21 02:57:38;;;;;;;2.50;0.77;;;-9.10;99.90;;;;;;5119680;27;20577;-61
2022/01/21 03:00:18;;;;;;;0.75;0.65;;;-9.20;99.90;;;;;;5080550;27;21175;-61
2022/01/21 03:02:58;;;;;;;1.60;0.95;;;-9.10;99.90;;;;;;5084772;27;20551;-62
2022/01/21 03:05:39;;;;;;;2.10;0.90;;;-9.00;99.90;;;;;;5105288;27;20557;-61
2022/01/21 03:08:19;;;;;;;0.98;0.60;;;-8.90;99.90;;;;;;5103903;27;20542;-61
2022/01/21 03:10:59;;;;;;;1.35;0.80;;;-8.70;99.90;;;;;;5096706;27;20716;-62
2022/01/21 03:13:39;;;;;;;2.45;0.80;;;-8.60;99.90;;;;;;5105162;27;20947;-61
2022/01/21 03:16:19;;;;;;;2.22;0.77;;;-8.60;99.90;;;;;;5084576;28;20958;-61
2022/01/21 03:18:58;;;;;;;1.65;0.63;;;-8.70;99.90;;;;;;5145219;27;21030;-61
2022/01/21 03:21:38;;;;;;;1.00;0.50;;;-8.70;99.90;;;;;;5084848;28;20696;-61
2022/01/21 03:24:18;;;;;;;2.65;0.80;;;-8.70;99.90;;;;;;5084768;27;20542;-61
2022/01/21 03:26:58;;;;;;;1.70;0.90;;;-8.80;99.90;;;;;;5084360;27;20557;-59
2022/01/21 03:29:38;;;;;;;1.55;0.68;;;-9.00;99.90;;;;;;5084522;27;20535;-59
2022/01/21 03:32:19;;;;;;;1.67;0.88;;;-9.30;99.90;;;;;;5104961;27;20541;-61
2022/01/21 03:34:59;;;;;;;1.88;1.42;;;-9.60;99.90;;;;;;5084517;28;20590;-61
2022/01/21 03:37:39;;;;;;;1.98;1.00;;;-9.80;99.90;;;;;;5145289;27;20665;-61
2022/01/21 03:40:18;;;;;;;2.42;0.75;;;-10.00;99.90;;;;;;5131509;27;20679;-61
2022/01/21 03:42:58;;;;;;;1.20;0.63;;;-10.10;99.90;;;;;;5084708;28;20547;-61
2022/01/21 03:45:38;;;;;;;1.33;1.15;;;-10.10;99.90;;;;;;5104807;27;20596;-61
2022/01/21 03:48:18;;;;;;;2.05;0.90;;;-10.30;99.90;;;;;;5124624;27;20535;-62
2022/01/21 03:50:58;;;;;;;1.92;0.70;;;-10.30;99.90;;;;;;5105241;27;20682;-61
2022/01/21 03:53:37;;;;;;;1.63;0.95;;;-10.50;99.90;;;;;;5104593;27;20534;-61
2022/01/21 03:56:18;;;;;;;2.60;0.82;;;-10.70;99.90;;;;;;5105157;27;20534;-61
2022/01/21 03:58:57;;;;;;;1.98;0.60;;;-10.90;99.90;;;;;;5123389;27;20548;-61
2022/01/21 04:01:37;;;;;;;1.95;1.27;;;-10.90;99.90;;;;;;5090442;27;20689;-61
2022/01/21 04:04:17;;;;;;;3.28;1.35;;;-11.00;99.90;;;;;;5104214;27;20559;-61
2022/01/21 04:06:57;;;;;;;2.00;0.88;;;-11.20;99.90;;;;;;5146051;27;21100;-62
2022/01/21 04:09:36;;;;;;;1.70;0.80;;;-11.20;99.90;;;;;;5145494;27;21206;-61
2022/01/21 04:12:16;;;;;;;2.05;1.30;;;-11.00;99.90;;;;;;5104972;27;20546;-62
2022/01/21 04:14:58;;;;;;;1.58;0.82;;;-11.00;99.90;;;;;;5145970;27;20661;-61
2022/01/21 04:17:38;;;;;;;1.58;1.00;;;-10.90;99.90;;;;;;5104334;27;21196;-59
2022/01/21 04:20:18;;;;;;;1.58;1.20;;;-11.10;99.90;;;;;;5119246;27;20551;-61
2022/01/21 04:22:58;;;;;;;2.38;1.25;;;-11.30;99.90;;;;;;5079169;28;20699;-61
2022/01/21 04:25:37;;;;;;;2.60;1.13;;;-11.30;99.90;;;;;;5061447;28;20622;-61
2022/01/21 04:28:17;;;;;;;1.38;0.90;;;-11.40;99.90;;;;;;5141902;27;20546;-62
2022/01/21 04:30:57;;;;;;;1.85;0.85;;;-11.60;99.90;;;;;;5096723;27;21224;-61
2022/01/21 04:33:36;;;;;;;1.48;0.60;;;-11.70;99.90;;;;;;5096326;27;20680;-62
2022/01/21 04:36:17;;;;;;;2.25;0.73;;;-11.80;99.90;;;;;;5142860;27;20719;-61
2022/01/21 04:38:59;;;;;;;1.30;0.60;;;-11.90;99.90;;;;;;5100411;27;20699;-61
2022/01/21 04:47:12;;;;;;;0.98;0.50;;;-12.10;99.90;;;;;;5070192;28;20611;-59
2022/01/21 04:47:40;;;;;;;2.03;0.77;;;-12.10;99.90;;;;;;5145499;27;21398;-61
2022/01/21 04:50:19;;;;;;;1.70;0.63;;;-12.00;99.90;;;;;;5148568;27;20551;-61
2022/01/21 04:52:58;;;;;;;1.50;0.43;;;-12.00;99.90;;;;;;5125672;27;20540;-61
2022/01/21 04:55:38;;;;;;;1.30;0.65;;;-12.00;99.90;;;;;;5104723;27;20591;-61
2022/01/21 04:58:19;;;;;;;1.95;0.88;;;-11.90;99.90;;;;;;5126031;27;20551;-61
2022/01/21 05:01:02;;;;;;;1.98;0.98;;;-12.00;99.90;;;;;;5094936;27;20687;-61
2022/01/21 05:03:45;;;;;;;0.98;0.60;;;-12.00;99.90;;;;;;5084540;28;20547;-60
2022/01/21 05:06:27;;;;;;;1.42;0.68;;;-12.00;99.90;;;;;;5104867;27;20538;-60
2022/01/21 05:09:06;;;;;;;2.55;0.85;;;-12.10;99.90;;;;;;5083079;27;20564;-61
2022/01/21 05:11:47;;;;;;;2.03;1.10;;;-12.20;99.90;;;;;;5084727;27;20571;-61
2022/01/21 05:14:41;;;;;;;1.77;0.93;;;-12.30;99.90;;;;;;5084517;28;20609;-59
2022/01/21 05:17:22;;;;;;;1.40;0.88;;;-12.40;99.90;;;;;;5078895;27;21172;-61
2022/01/21 05:20:01;;;;;;;2.05;0.90;;;-12.40;99.90;;;;;;5102373;27;20674;-61
2022/01/21 05:22:41;;;;;;;1.75;1.05;;;-12.40;99.90;;;;;;5141324;27;20534;-61
2022/01/21 05:25:20;;;;;;;0.90;0.77;;;-12.10;99.90;;;;;;5083671;28;20684;-61
2022/01/21 05:28:00;;;;;;;2.70;2.05;;;-11.90;99.90;;;;;;5144326;27;21036;-61
2022/01/21 05:30:40;;;;;;;2.15;1.13;;;-11.70;99.90;;;;;;5105076;27;20678;-61
2022/01/21 05:33:20;;;;;;;4.28;1.33;;;-11.10;99.90;;;;;;5145784;27;20791;-62
2022/01/21 05:36:00;;;;;;;1.70;1.02;;;-10.90;99.90;;;;;;5141752;27;20673;-61
2022/01/21 05:38:39;;;;;;;2.40;1.15;;;-10.70;99.90;;;;;;5103435;27;20957;-61
2022/01/21 05:41:22;;;;;;;1.75;1.30;;;-10.80;99.90;;;;;;5125559;27;21235;-61
2022/01/21 05:44:05;;;;;;;2.33;1.05;;;-10.80;99.90;;;;;;5143840;27;20538;-59
2022/01/21 05:46:54;;;;;;;1.45;0.73;;;-10.60;99.90;;;;;;5156034;22;20724;-57
2022/01/21 05:49:36;;;;;;;3.05;0.85;;;-10.60;99.90;;;;;;5123156;27;20540;-57
2022/01/21 05:52:18;;;;;;;1.90;0.80;;;-10.50;99.90;;;;;;5126007;27;20548;-58
2022/01/21 05:54:58;;;;;;;1.50;0.93;;;-10.50;99.90;;;;;;5145891;27;20538;-58
2022/01/21 05:57:37;;;;;;;0.88;0.80;;;-10.40;99.90;;;;;;5104428;27;20546;-57
2022/01/21 06:00:18;;;;;;;2.08;1.00;;;-10.30;99.90;;;;;;5118201;27;21022;-57
2022/01/21 06:02:57;;;;;;;1.75;1.05;;;-10.20;99.90;;;;;;5103392;27;20674;-57
2022/01/21 06:05:37;;;;;;;1.35;0.80;;;-10.10;99.90;;;;;;5104613;27;20538;-57
2022/01/21 06:08:17;;;;;;;2.10;1.00;;;-10.20;99.90;;;;;;5164837;27;21004;-57
2022/01/21 06:10:57;;;;;;;1.33;1.08;;;-10.40;99.90;;;;;;5145700;27;20546;-57
2022/01/21 06:13:37;;;;;;;2.58;1.20;;;-10.50;99.90;;;;;;5104539;27;20541;-57
2022/01/21 06:16:17;;;;;;;2.58;1.30;;;-10.70;99.90;;;;;;5125280;27;20541;-58
2022/01/21 06:18:57;;;;;;;3.50;0.80;;;-10.80;99.90;;;;;;5124048;27;20555;-58
2022/01/21 06:21:36;;;;;;;1.77;1.23;;;-10.90;99.90;;;;;;5080185;27;21404;-57
2022/01/21 06:24:16;;;;;;;3.72;1.55;;;-10.90;99.90;;;;;;5103209;27;20662;-58
2022/01/21 06:27:00;;;;;;;2.47;1.27;;;-10.90;99.90;;;;;;5096158;27;20567;-58
2022/01/21 06:29:40;;;;;;;2.08;1.17;;;-10.80;99.90;;;;;;5083411;27;20612;-57
2022/01/21 06:32:20;;;;;;;2.40;1.45;;;-10.90;99.90;;;;;;5125312;27;21154;-58
2022/01/21 06:35:00;;;;;;;2.60;0.98;;;-10.90;99.90;;;;;;5120917;27;20544;-56
2022/01/21 06:37:40;;;;;;;3.22;0.80;;;-11.00;99.90;;;;;;5083143;27;20560;-58
2022/01/21 06:40:20;;;;;;;2.15;0.90;;;-11.10;99.90;;;;;;5103963;27;20670;-56
2022/01/21 06:43:02;;;;;;;1.30;0.70;;;-11.10;99.90;;;;;;5083929;28;21141;-57
2022/01/21 06:45:43;;;;;;;1.60;0.90;;;-11.10;99.90;;;;;;5083119;28;20532;-57
2022/01/21 06:48:22;;;;;;;2.85;1.60;;;-10.80;99.90;;;;;;5080229;27;20617;-58
2022/01/21 06:51:02;;;;;;;4.35;3.38;;;-10.40;99.90;;;;;;5104364;27;21090;-57
2022/01/21 06:53:42;;;;;;;1.00;0.95;;;-10.10;99.90;;;;;;5150515;27;20542;-57
2022/01/21 06:56:22;;;;;;;3.15;1.55;;;-10.20;99.90;;;;;;5081413;28;20701;-57
2022/01/21 06:59:01;;;;;;;1.15;0.70;;;-10.40;99.90;;;;;;5134095;27;20665;-58
2022/01/21 07:01:41;;;;;;;1.98;1.38;;;-10.30;99.90;;;;;;5104149;27;20583;-57
2022/01/21 07:04:21;;;;;;;1.75;0.90;;;-10.40;99.90;;;;;;5082966;27;21068;-57
2022/01/21 07:07:01;;;;;;;3.45;1.80;;;-10.40;99.90;;;;;;5096121;27;20559;-57
2022/01/21 07:09:41;;;;;;;1.20;0.88;;;-10.50;99.90;;;;;;5145434;27;20535;-58
2022/01/21 07:12:21;;;;;;;1.50;1.00;;;-10.50;99.90;;;;;;5105266;27;20546;-57
2022/01/21 07:15:00;;;;;;;4.35;3.00;;;-10.60;99.90;;;;;;5084584;27;20647;-59
2022/01/21 07:17:40;;;;;;;1.65;1.10;;;-10.60;99.90;;;;;;5120038;27;20687;-58
2022/01/21 07:20:21;;;;;;;5.00;4.50;;;-10.60;99.90;;;;;;5102954;27;20553;-58
2022/01/21 07:23:00;;;;;;;3.50;1.70;;;-10.60;99.90;;;;;;5139873;27;20600;-57
2022/01/21 07:25:40;;;;;;;1.58;0.90;;;-10.40;99.90;;;;;;5119619;27;20540;-58
2022/01/21 07:28:20;;;;;;;2.13;0.88;;;-10.30;99.90;;;;;;5063311;27;20602;-57
2022/01/21 07:31:00;;;;;;;2.42;1.50;;;-10.30;99.90;;;;;;5146373;27;20677;-58
2022/01/21 07:33:39;;;;;;;1.17;1.05;;;-10.30;99.90;;;;;;5083658;28;21156;-59
2022/01/21 07:36:19;;;;;;;1.70;1.60;;;-10.20;99.90;;;;;;5119889;27;20660;-57
2022/01/21 07:38:59;;;;;;;2.30;0.80;;;-10.10;99.90;;;;;;5123438;27;20953;-57
2022/01/21 07:41:39;;;;;;;1.95;0.70;;;-10.00;99.90;;;;;;5145902;27;21016;-57
2022/01/21 07:44:19;;;;;;;1.40;1.10;;;-10.10;99.90;;;;;;5124452;27;20536;-58
2022/01/21 07:46:59;;;;;;;1.92;1.75;;;-10.10;99.90;;;;;;5098009;27;20566;-58
2022/01/21 07:49:38;;;;;;;1.85;1.23;;;-10.10;99.90;;;;;;5082711;27;20544;-57
2022/01/21 07:52:18;;;;;;;2.47;2.28;;;-10.00;99.90;;;;;;5104072;27;20921;-58
2022/01/21 07:54:58;;;;;;;2.80;1.95;;;-9.90;99.90;;;;;;5084134;27;20568;-58
2022/01/21 07:57:39;;;;;;;1.88;1.15;;;-9.80;99.90;;;;;;5104099;27;20561;-59
2022/01/21 08:00:18;;;;;;;2.58;1.40;;;-9.60;99.90;;;;;;5135680;22;20612;-60
2022/01/21 08:02:57;;;;;;;3.55;2.45;;;-9.40;99.90;;;;;;5105201;27;21041;-62
2022/01/21 08:05:37;;;;;;;4.03;2.58;;;-9.30;99.90;;;;;;5084591;27;21102;-62
2022/01/21 08:08:17;;;;;;;3.75;1.77;;;-9.00;99.90;;;;;;5083884;28;20656;-60
2022/01/21 08:10:57;;;;;;;2.05;1.23;;;-8.80;99.90;;;;;;5104895;27;20565;-61
2022/01/21 08:13:37;;;;;;;3.40;2.30;;;-8.40;99.90;;;;;;5084815;27;20547;-60
2022/01/21 08:16:17;;;;;;;2.47;2.17;;;-8.20;99.90;;;;;;5146696;27;21228;-64
2022/01/21 08:18:56;;;;;;;2.28;1.67;;;-8.00;99.90;;;;;;5103666;27;21070;-62
2022/01/21 08:21:36;;;;;;;1.90;1.60;;;-7.90;99.90;;;;;;5162389;27;20548;-62
2022/01/21 08:24:16;;;;;;;3.72;2.10;;;-7.80;99.90;;;;;;5116652;27;20700;-63
2022/01/21 08:26:56;;;;;;;3.78;1.63;;;-7.70;99.90;;;;;;5142475;27;20544;-61
2022/01/21 08:29:36;;;;;;;4.22;3.92;;;-7.60;99.90;;;;;;5081598;28;21197;-60
2022/01/21 08:32:15;;;;;;;4.30;2.40;;;-7.30;99.90;;;;;;5083479;28;20660;-60
2022/01/21 08:34:55;;;;;;;3.35;1.95;;;-7.10;99.90;;;;;;5145571;27;20603;-62
2022/01/21 08:37:35;;;;;;;2.63;1.58;;;-7.00;99.90;;;;;;5145911;27;20969;-60
2022/01/21 08:40:15;;;;;;;3.88;3.47;;;-6.90;99.90;;;;;;5079916;27;20567;-60
2022/01/21 08:42:55;;;;;;;4.88;1.77;;;-6.80;99.90;;;;;;5146067;27;21058;-60
2022/01/21 08:45:35;;;;;;;2.05;1.50;;;-6.50;99.90;;;;;;5140181;27;20817;-63
2022/01/21 08:48:14;;;;;;;2.95;2.05;;;-6.30;99.90;;;;;;5137527;27;20681;-61
2022/01/21 08:50:55;;;;;;;1.92;1.33;;;-6.00;99.90;;;;;;5093927;27;20727;-60
2022/01/21 08:53:41;;;;;;;2.25;1.52;;;-5.80;99.90;;;;;;5076370;28;20595;-60
2022/01/21 08:56:21;;;;;;;4.85;1.83;;;-5.50;99.90;;;;;;5144748;27;20527;-60
2022/01/21 08:59:00;;;;;;;4.38;1.48;;;-5.30;99.90;;;;;;5124474;27;20957;-61
2022/01/21 09:01:40;;;;;;;3.17;1.55;;;-5.20;99.90;;;;;;5105625;27;21044;-58
2022/01/21 09:04:20;;;;;;;2.33;1.48;;;-4.90;99.90;;;;;;5100618;27;21737;-60
2022/01/21 09:07:00;;;;;;;5.25;4.72;;;-4.90;99.90;;;;;;5124918;27;20560;-59
2022/01/21 09:09:39;;;;;;;3.80;2.10;;;-4.80;99.90;;;;;;5084606;27;20547;-60
2022/01/21 09:12:19;;;;;;;2.10;1.90;;;-4.70;99.90;;;;;;5085038;28;20672;-61
2022/01/21 09:14:59;;;;;;;4.28;1.67;;;-4.50;99.90;;;;;;5098383;27;20944;-59
2022/01/21 09:17:39;;;;;;;3.95;2.20;;;-4.50;99.90;;;;;;5091129;27;20697;-60
2022/01/21 09:20:19;;;;;;;6.93;4.28;;;-4.30;99.90;;;;;;5140919;27;20568;-58
2022/01/21 09:22:59;;;;;;;3.70;3.17;;;-4.10;99.90;;;;;;5130127;27;20544;-59
2022/01/21 09:25:39;;;;;;;4.93;3.63;;;-3.90;99.90;;;;;;5103627;27;20574;-60
2022/01/21 09:28:18;;;;;;;6.25;3.50;;;-3.60;99.90;;;;;;5126262;27;21041;-60
2022/01/21 09:30:58;;;;;;;2.63;1.58;;;-3.40;99.90;;;;;;5084210;28;20559;-60
2022/01/21 09:33:38;;;;;;;3.65;1.70;;;-3.10;99.90;;;;;;5145984;27;20657;-62
2022/01/21 09:36:19;;;;;;;2.88;1.70;;;-2.80;99.90;;;;;;5084216;27;20561;-61
2022/01/21 09:39:00;;;;;;;1.67;1.45;;;-2.30;99.90;;;;;;5145193;27;20661;-60
2022/01/21 09:41:42;;;;;;;3.83;1.75;;;-1.80;99.90;;;;;;5084153;27;20559;-57
2022/01/21 09:44:22;;;;;;;2.67;1.33;;;-1.40;99.90;;;;;;5116416;27;20860;-62
2022/01/21 09:47:04;;;;;;;3.58;1.70;;;-1.30;99.90;;;;;;5101576;27;20574;-60
2022/01/21 09:49:44;;;;;;;4.63;1.48;;;-1.40;99.90;;;;;;5084115;27;21003;-59
2022/01/21 09:52:24;;;;;;;3.67;1.42;;;-1.60;99.90;;;;;;5084470;28;20664;-60
2022/01/21 09:55:06;;;;;;;7.43;1.50;;;-1.40;99.90;;;;;;5122080;27;21128;-60
2022/01/21 09:57:47;;;;;;;5.15;1.45;;;-0.90;99.90;;;;;;5142860;27;20552;-57
2022/01/21 10:00:28;;;;;;;5.68;3.25;;;-0.30;99.90;;;;;;5104391;27;21020;-58
2022/01/21 10:03:08;;;;;;;4.28;1.40;;;0.10;99.90;;;;;;5084831;28;20668;-58
2022/01/21 10:05:55;;;;;;;8.05;2.08;;;0.20;99.90;;;;;;5145376;27;20661;-59
2022/01/21 10:08:39;;;;;;;10.45;1.70;;;0.40;99.90;;;;;;5124982;27;20614;-59
2022/01/21 10:11:19;;;;;;;7.28;1.73;;;0.60;99.90;;;;;;5105701;27;20534;-60
2022/01/21 10:13:58;;;;;;;5.20;1.55;;;0.70;99.90;;;;;;5095330;27;20688;-59
2022/01/21 10:16:38;;;;;;;5.57;1.70;;;0.80;99.90;;;;;;5104448;27;20596;-60
2022/01/21 10:19:24;;;;;;;5.07;1.63;;;0.80;99.90;;;;;;5083433;27;20564;-61
2022/01/21 10:22:06;;;;;;;4.93;1.65;;;0.80;99.90;;;;;;5087633;27;20588;-59
2022/01/21 10:24:57;;;;;;;3.22;2.05;;;0.90;99.90;;;;;;5136660;27;20712;-58
2022/01/21 10:27:38;;;;;;;4.95;2.00;;;0.80;99.90;;;;;;5103424;27;20677;-59
2022/01/21 10:30:22;;;;;;;3.28;1.60;;;0.80;99.90;;;;;;5080189;28;20689;-58
2022/01/21 10:33:00;;;;;;;4.80;1.63;;;0.70;99.90;;;;;;5145414;27;20653;-59
2022/01/21 10:35:40;;;;;;;3.13;2.00;;;0.90;99.90;;;;;;5103519;27;20681;-59
2022/01/21 10:38:27;;;;;;;5.22;1.98;;;1.10;99.90;;;;;;5083853;27;20590;-61
2022/01/21 10:41:08;;;;;;;3.33;1.73;;;1.20;99.90;;;;;;5084432;27;20553;-60
2022/01/21 10:44:05;;;;;;;4.47;2.30;;;1.40;99.90;;;;;;5084086;27;20580;-58
2022/01/21 10:47:03;;;;;;;5.85;2.45;;;1.50;99.90;;;;;;5145804;27;20546;-59
2022/01/21 10:49:43;;;;;;;4.75;1.88;;;1.70;99.90;;;;;;5145724;27;20619;-59
2022/01/21 10:52:31;;;;;;;5.95;1.65;;;2.10;99.90;;;;;;5104867;27;21104;-61
2022/01/21 10:58:11;;;;;;;3.35;1.55;;;2.40;99.90;;;;;;5121229;27;20664;-60
2022/01/21 11:01:01;;;;;;;3.72;2.30;;;2.40;99.90;;;;;;5103537;27;20666;-60
2022/01/21 11:04:00;;;;;;;5.45;2.63;;;2.40;99.90;;;;;;5084081;28;20695;-59
2022/01/21 11:06:51;;;;;;;4.75;1.90;;;2.60;99.90;;;;;;5082689;27;20543;-59
2022/01/21 11:09:30;;;;;;;5.43;2.10;;;2.60;99.90;;;;;;5083746;28;20543;-57
2022/01/21 11:12:12;;;;;;;7.97;2.20;;;2.70;99.90;;;;;;5082049;27;20536;-59
2022/01/21 11:14:58;;;;;;;8.75;2.15;;;2.80;99.90;;;;;;5120586;27;21234;-56
2022/01/21 11:17:56;;;;;;;4.57;1.73;;;3.00;99.90;;;;;;5144550;27;20674;-59
2022/01/21 11:20:39;;;;;;;8.73;4.65;;;3.30;99.90;;;;;;5083294;27;20540;-59
2022/01/21 11:23:21;;;;;;;3.08;2.20;;;3.30;99.90;;;;;;5104602;27;20685;-59
2022/01/21 11:26:03;;;;;;;5.25;2.00;;;3.40;99.90;;;;;;5084162;27;20565;-59
2022/01/21 11:28:45;;;;;;;4.32;1.85;;;3.70;99.90;;;;;;5081720;27;20593;-59
2022/01/21 11:31:29;;;;;;;4.60;1.83;;;4.00;99.90;;;;;;5099877;27;20691;-60
2022/01/21 11:34:08;;;;;;;3.58;1.48;;;4.20;99.90;;;;;;5074353;28;20705;-58
2022/01/21 11:36:49;;;;;;;3.47;2.45;;;4.30;99.90;;;;;;5144968;27;20538;-60
2022/01/21 11:39:29;;;;;;;3.33;1.65;;;4.40;99.90;;;;;;5102231;27;21149;-60
2022/01/21 11:42:09;;;;;;;6.45;3.13;;;4.50;99.90;;;;;;5091024;27;21235;-60
2022/01/21 11:44:52;;;;;;;8.90;3.38;;;4.30;99.90;;;;;;5103739;27;20681;-59
2022/01/21 11:47:49;;;;;;;4.82;1.67;;;4.30;99.90;;;;;;5083502;28;20671;-60
2022/01/21 11:50:30;;;;;;;10.50;2.45;;;4.10;99.90;;;;;;5145961;27;20546;-59
2022/01/21 11:53:10;;;;;;;5.05;2.33;;;4.10;99.90;;;;;;5080684;27;21058;-59
2022/01/21 11:55:50;;;;;;;4.65;2.20;;;3.90;99.90;;;;;;5096932;27;20681;-59
2022/01/21 11:58:29;;;;;;;3.03;1.45;;;3.70;99.90;;;;;;5083366;27;20600;-60
2022/01/21 12:01:33;;;;;;;2.72;1.50;;;3.60;99.90;;;;;;5142694;27;20665;-59
2022/01/21 12:04:14;;;;;;;3.95;1.80;;;3.80;99.90;;;;;;5145522;27;20551;-59
2022/01/21 12:06:53;;;;;;;3.30;1.60;;;3.70;99.90;;;;;;5082857;28;20535;-60
2022/01/21 12:09:57;;;;;;;6.55;1.65;;;3.70;99.90;;;;;;5101437;27;20534;-61
2022/01/21 12:13:06;;;;;;;3.72;1.90;;;3.80;99.90;;;;;;5142385;27;20565;-61
2022/01/21 12:15:56;;;;;;;3.22;1.60;;;3.90;99.90;;;;;;5118784;27;20603;-59
2022/01/21 12:19:23;;;;;;;3.83;1.52;;;3.60;99.90;;;;;;5082073;27;20612;-60
2022/01/21 12:22:14;;;;;;;2.72;1.55;;;3.40;99.90;;;;;;5102231;27;20669;-59
2022/01/21 12:25:06;;;;;;;2.85;1.70;;;3.50;99.90;;;;;;5090664;27;20563;-58
2022/01/21 12:28:15;;;;;;;3.25;1.90;;;3.50;99.90;;;;;;5083033;27;20555;-58
2022/01/21 12:30:55;;;;;;;3.45;2.03;;;3.20;99.90;;;;;;5082938;27;20547;-59
2022/01/21 12:34:02;;;;;;;2.33;1.90;;;3.30;99.90;;;;;;5134710;27;20707;-60
2022/01/21 12:36:48;;;;;;;3.78;1.90;;;3.40;99.90;;;;;;5140449;27;20538;-61
2022/01/21 12:39:41;;;;;;;2.53;1.70;;;3.50;99.90;;;;;;5102557;27;21031;-60
2022/01/21 12:42:35;;;;;;;2.78;1.80;;;3.60;99.90;;;;;;5083307;28;20550;-60
2022/01/21 12:45:24;;;;;;;2.53;2.05;;;3.60;99.90;;;;;;5067597;27;20579;-59
2022/01/21 12:48:28;;;;;;;3.90;2.00;;;3.50;99.90;;;;;;5123288;27;20536;-60
2022/01/21 12:51:16;;;;;;;4.70;1.90;;;3.30;99.90;;;;;;5103944;27;20677;-59
2022/01/21 12:56:59;;;;;;;2.95;1.85;;;4.00;99.90;;;;;;5122505;27;20660;-59
2022/01/21 12:59:39;;;;;;;3.92;2.15;;;4.00;99.90;;;;;;5122601;27;20613;-60
2022/01/21 13:02:24;;;;;;;4.88;1.85;;;3.70;99.90;;;;;;5103251;27;20553;-59
2022/01/21 13:05:12;;;;;;;2.88;1.80;;;3.60;99.90;;;;;;5134264;27;20693;-60
2022/01/21 13:08:07;;;;;;;4.80;2.63;;;3.20;99.90;;;;;;5082810;28;20672;-58
2022/01/21 13:10:47;;;;;;;3.08;1.70;;;2.90;99.90;;;;;;5123798;27;20544;-59
2022/01/21 13:13:47;;;;;;;2.30;2.10;;;2.80;99.90;;;;;;5103203;27;20658;-59
2022/01/21 13:16:29;;;;;;;4.15;2.17;;;2.80;99.90;;;;;;5103960;27;20662;-61
2022/01/21 13:19:09;;;;;;;3.22;1.75;;;2.80;99.90;;;;;;5082706;27;21060;-59
2022/01/21 13:21:49;;;;;;;2.33;1.92;;;2.80;99.90;;;;;;5103646;27;20673;-61
2022/01/21 13:24:31;;;;;;;3.47;2.10;;;2.80;99.90;;;;;;5112469;27;20605;-60
2022/01/21 13:27:11;;;;;;;6.28;1.95;;;2.50;99.90;;;;;;5081618;27;20577;-59
2022/01/21 13:29:52;;;;;;;3.30;1.85;;;2.60;99.90;;;;;;5082563;27;20551;-59
2022/01/21 13:32:32;;;;;;;3.25;1.95;;;2.90;99.90;;;;;;5145804;27;20538;-60
2022/01/21 13:35:14;;;;;;;3.67;2.22;;;3.20;99.90;;;;;;5097175;27;20549;-61
2022/01/21 13:38:21;;;;;;;2.78;2.03;;;3.10;99.90;;;;;;5083253;28;20689;-59
2022/01/21 13:41:01;;;;;;;4.45;2.30;;;3.30;99.90;;;;;;5083270;28;20676;-60
2022/01/21 13:43:42;;;;;;;3.38;2.15;;;3.50;99.90;;;;;;5100377;27;21198;-59
2022/01/21 13:46:21;;;;;;;2.55;1.98;;;3.90;99.90;;;;;;5135954;27;20609;-59
2022/01/21 13:49:05;;;;;;;6.70;6.25;;;4.20;99.90;;;;;;5082034;27;20576;-57
2022/01/21 13:51:54;;;;;;;3.15;2.05;;;4.50;99.90;;;;;;5119162;27;20572;-59
2022/01/21 13:54:37;;;;;;;3.38;2.13;;;4.40;99.90;;;;;;5099053;27;20671;-60
2022/01/21 13:57:26;;;;;;;2.92;2.00;;;4.00;99.90;;;;;;5082439;27;20959;-58
2022/01/21 14:00:08;;;;;;;6.25;2.22;;;3.70;99.90;;;;;;5080070;27;21095;-60
2022/01/21 14:03:01;;;;;;;5.32;1.77;;;3.40;99.90;;;;;;5066282;28;21111;-59
2022/01/21 14:05:52;;;;;;;2.80;1.77;;;3.20;99.90;;;;;;5101861;27;21218;-59
2022/01/21 14:08:35;;;;;;;3.35;2.22;;;2.80;99.90;;;;;;5104165;27;20953;-59
2022/01/21 14:11:23;;;;;;;2.17;1.80;;;2.40;99.90;;;;;;5104065;27;20677;-60
2022/01/21 14:14:05;;;;;;;1.73;1.63;;;2.30;99.90;;;;;;5079491;27;20610;-59
2022/01/21 14:16:47;;;;;;;2.97;1.65;;;2.00;99.90;;;;;;5084493;27;20543;-60
2022/01/21 14:19:29;;;;;;;2.60;1.70;;;2.00;99.90;;;;;;5104180;27;20654;-62
2022/01/21 14:22:10;;;;;;;3.15;1.63;;;1.90;99.90;;;;;;5125475;27;20548;-59
2022/01/21 14:24:52;;;;;;;2.40;1.67;;;1.90;99.90;;;;;;5157532;27;20552;-60
2022/01/21 14:27:32;;;;;;;4.32;1.95;;;1.80;99.90;;;;;;5084564;28;20973;-58
2022/01/21 14:30:15;;;;;;;2.85;2.10;;;1.80;99.90;;;;;;5083831;27;20683;-59
2022/01/21 14:32:57;;;;;;;2.30;2.10;;;1.70;99.90;;;;;;5079831;27;20588;-59
2022/01/21 14:35:40;;;;;;;2.08;1.90;;;1.60;99.90;;;;;;5133525;27;20700;-59
2022/01/21 14:38:21;;;;;;;2.13;1.70;;;1.50;99.90;;;;;;5103179;27;21068;-62
2022/01/21 14:41:01;;;;;;;1.70;1.50;;;1.50;99.90;;;;;;5102194;27;20542;-59
2022/01/21 14:43:50;;;;;;;2.47;1.77;;;1.70;99.90;;;;;;5083911;27;20669;-60
2022/01/21 14:46:30;;;;;;;1.77;1.48;;;1.90;99.90;;;;;;5076719;27;20567;-59
2022/01/21 14:49:11;;;;;;;1.75;1.40;;;2.00;99.90;;;;;;5082489;27;20667;-60